createdAt,value
2018-10-06T00:00:35.082Z,72.05
2018-10-06T00:03:04.318Z,71.93
2018-10-06T00:05:33.622Z,72.43
2018-10-06T00:08:02.902Z,72.35
2018-10-06T00:10:32.164Z,71.64
2018-10-06T00:13:01.369Z,72.03
2018-10-06T00:15:31.152Z,72.29
2018-10-06T00:18:00.373Z,72.72
2018-10-06T00:20:29.608Z,72.98
2018-10-06T00:22:58.791Z,72.50
2018-10-06T00:25:28.224Z,72.73
2018-10-06T00:27:57.431Z,72.40
2018-10-06T00:30:26.704Z,72.92
2018-10-06T00:32:55.941Z,73.18
2018-10-06T00:35:25.184Z,72.34
2018-10-06T00:37:54.397Z,73.06
2018-10-06T00:40:23.651Z,73.11
2018-10-06T00:42:52.872Z,72.34
2018-10-06T00:45:22.119Z,73.03
2018-10-06T00:47:51.309Z,72.81
2018-10-06T00:50:20.571Z,73.21
2018-10-06T00:52:49.827Z,73.11
2018-10-06T00:55:19.236Z,72.59
2018-10-06T00:57:48.466Z,73.19
2018-10-06T01:00:18.379Z,72.99
2018-10-06T01:02:47.612Z,73.37
2018-10-06T01:05:17.087Z,73.36
2018-10-06T01:07:46.311Z,73.12
2018-10-06T01:10:17.156Z,72.75
2018-10-06T01:12:46.340Z,72.96
2018-10-06T01:15:16.939Z,73.72
2018-10-06T01:17:46.202Z,73.36
2018-10-06T01:20:16.587Z,73.21
2018-10-06T01:22:45.802Z,73.11
2018-10-06T01:25:17.004Z,73.06
2018-10-06T01:27:46.221Z,73.06
2018-10-06T01:30:17.276Z,72.90
2018-10-06T01:32:46.558Z,73.45
2018-10-06T01:35:17.021Z,73.34
2018-10-06T01:37:46.243Z,73.66
2018-10-06T01:40:17.046Z,74.41
2018-10-06T01:42:46.267Z,73.37
2018-10-06T01:45:16.078Z,74.09
2018-10-06T01:47:45.324Z,74.52
2018-10-06T01:50:16.520Z,74.32
2018-10-06T01:52:45.760Z,74.64
2018-10-06T01:55:15.724Z,74.12
2018-10-06T01:57:45.011Z,73.99
2018-10-06T02:00:14.601Z,73.66
2018-10-06T02:02:43.780Z,74.28
2018-10-06T02:05:15.930Z,74.51
2018-10-06T02:07:45.177Z,74.55
2018-10-06T02:10:15.450Z,73.96
2018-10-06T02:12:44.680Z,74.19
2018-10-06T02:15:15.329Z,74.32
2018-10-06T02:17:44.525Z,74.22
2018-10-06T02:20:13.871Z,73.96
2018-10-06T02:22:43.050Z,74.08
2018-10-06T02:25:12.806Z,74.20
2018-10-06T02:27:42.001Z,74.41
2018-10-06T02:30:11.339Z,74.47
2018-10-06T02:32:40.461Z,73.69
2018-10-06T02:35:09.663Z,73.96
2018-10-06T02:37:38.866Z,73.94
2018-10-06T02:40:08.106Z,73.79
2018-10-06T02:42:37.363Z,74.27
2018-10-06T02:45:07.380Z,73.66
2018-10-06T02:47:36.579Z,74.38
2018-10-06T02:50:05.810Z,74.59
2018-10-06T02:52:35.005Z,74.18
2018-10-06T02:55:04.221Z,74.42
2018-10-06T02:57:33.403Z,74.58
2018-10-06T03:00:02.615Z,74.56
2018-10-06T03:02:31.815Z,74.90
2018-10-06T03:05:01.005Z,74.80
2018-10-06T03:07:30.251Z,74.59
2018-10-06T03:09:59.455Z,74.93
2018-10-06T03:12:28.678Z,74.78
2018-10-06T03:14:57.887Z,75.14
2018-10-06T03:17:27.149Z,74.32
2018-10-06T03:19:56.371Z,74.89
2018-10-06T03:22:25.594Z,74.59
2018-10-06T03:24:54.770Z,74.04
2018-10-06T03:27:23.965Z,74.67
2018-10-06T03:29:53.183Z,74.54
2018-10-06T03:32:22.359Z,74.55
2018-10-06T03:34:51.607Z,74.16
2018-10-06T03:37:20.863Z,74.84
2018-10-06T03:39:50.070Z,74.80
2018-10-06T03:42:19.252Z,75.08
2018-10-06T03:44:48.460Z,74.33
2018-10-06T03:47:17.860Z,74.87
2018-10-06T03:49:47.059Z,74.87
2018-10-06T03:52:16.580Z,75.12
2018-10-06T03:54:45.797Z,74.71
2018-10-06T03:57:15.580Z,75.58
2018-10-06T03:59:44.752Z,75.14
2018-10-06T04:02:14.588Z,74.80
2018-10-06T04:04:43.772Z,75.78
2018-10-06T04:07:13.631Z,74.88
2018-10-06T04:09:42.826Z,74.84
2018-10-06T04:12:11.995Z,74.64
2018-10-06T04:14:41.203Z,75.15
2018-10-06T04:17:10.674Z,74.77
2018-10-06T04:19:39.844Z,74.91
2018-10-06T04:22:09.064Z,75.16
2018-10-06T04:24:38.222Z,75.44
2018-10-06T04:27:07.437Z,75.46
2018-10-06T04:29:36.607Z,74.86
2018-10-06T04:32:05.815Z,74.99
2018-10-06T04:34:34.962Z,75.36
2018-10-06T04:37:04.176Z,75.72
2018-10-06T04:39:33.375Z,74.83
2018-10-06T04:42:02.580Z,75.09
2018-10-06T04:44:31.739Z,75.43
2018-10-06T04:47:00.976Z,75.46
2018-10-06T04:49:30.176Z,76.16
2018-10-06T04:51:59.378Z,75.15
2018-10-06T04:54:28.534Z,75.83
2018-10-06T04:56:57.716Z,75.66
2018-10-06T04:59:26.870Z,75.65
2018-10-06T05:01:56.081Z,75.92
2018-10-06T05:04:25.287Z,75.01
2018-10-06T05:06:54.517Z,74.67
2018-10-06T05:09:23.884Z,75.46
2018-10-06T05:11:53.121Z,75.14
2018-10-06T05:14:22.272Z,75.46
2018-10-06T05:16:52.353Z,75.70
2018-10-06T05:19:21.556Z,74.88
2018-10-06T05:21:50.740Z,75.25
2018-10-06T05:24:19.908Z,75.36
2018-10-06T05:26:49.134Z,75.18
2018-10-06T05:29:18.384Z,75.13
2018-10-06T05:31:47.663Z,75.27
2018-10-06T05:34:16.906Z,75.34
2018-10-06T05:36:46.093Z,75.31
2018-10-06T05:39:15.259Z,75.94
2018-10-06T05:41:44.487Z,75.77
2018-10-06T05:44:13.653Z,74.86
2018-10-06T05:46:42.931Z,75.42
2018-10-06T05:49:12.252Z,75.05
2018-10-06T05:51:41.440Z,75.80
2018-10-06T05:54:10.633Z,75.03
2018-10-06T05:56:39.830Z,75.25
2018-10-06T05:59:09.077Z,74.30
2018-10-06T06:01:39.062Z,74.17
2018-10-06T06:04:09.806Z,73.76
2018-10-06T06:06:39.030Z,72.75
2018-10-06T06:09:08.702Z,72.60
2018-10-06T06:11:37.940Z,70.79
2018-10-06T06:14:07.250Z,70.21
2018-10-06T06:16:36.519Z,68.57
2018-10-06T06:19:05.714Z,67.12
2018-10-06T06:21:34.950Z,66.57
2018-10-06T06:24:04.300Z,65.88
2018-10-06T06:26:33.510Z,64.55
2018-10-06T06:29:02.712Z,62.78
2018-10-06T06:31:31.967Z,63.37
2018-10-06T06:34:01.247Z,63.47
2018-10-06T06:36:30.659Z,62.90
2018-10-06T06:38:59.855Z,61.71
2018-10-06T06:41:29.107Z,60.55
2018-10-06T06:43:58.351Z,59.19
2018-10-06T06:46:27.541Z,59.58
2018-10-06T06:48:56.731Z,59.19
2018-10-06T06:51:25.948Z,58.34
2018-10-06T06:53:55.138Z,55.34
2018-10-06T06:56:24.691Z,55.39
2018-10-06T06:58:55.124Z,57.80
2018-10-06T07:01:24.471Z,56.43
2018-10-06T07:03:53.608Z,56.25
2018-10-06T07:06:22.823Z,54.39
2018-10-06T07:08:52.024Z,54.23
2018-10-06T07:11:21.415Z,54.15
2018-10-06T07:13:50.644Z,53.25
2018-10-06T07:16:19.863Z,51.90
2018-10-06T07:18:49.054Z,51.25
2018-10-06T07:21:18.340Z,48.79
2018-10-06T07:23:47.567Z,48.68
2018-10-06T07:26:17.035Z,48.88
2018-10-06T07:28:46.191Z,48.51
2018-10-06T07:31:15.437Z,46.46
2018-10-06T07:33:44.600Z,44.73
2018-10-06T07:36:14.169Z,47.81
2018-10-06T07:38:43.359Z,49.10
2018-10-06T07:41:12.565Z,46.43
2018-10-06T07:43:41.738Z,47.58
2018-10-06T07:46:10.951Z,46.26
2018-10-06T07:48:40.143Z,47.46
2018-10-06T07:51:39.234Z,48.56
2018-10-06T07:54:08.860Z,47.58
2018-10-06T07:56:38.110Z,50.36
2018-10-06T07:59:08.206Z,51.09
2018-10-06T08:01:38.169Z,51.72
2018-10-06T08:04:07.746Z,49.48
2018-10-06T08:06:36.956Z,49.31
2018-10-06T08:09:07.295Z,48.61
2018-10-06T08:11:36.608Z,47.86
2018-10-06T08:14:06.138Z,46.83
2018-10-06T08:16:36.075Z,45.85
2018-10-06T08:19:05.287Z,47.93
2018-10-06T08:21:34.506Z,47.68
2018-10-06T08:24:03.779Z,49.05
2018-10-06T08:26:33.031Z,48.54
2018-10-06T08:29:02.233Z,48.82
2018-10-06T08:31:31.457Z,47.98
2018-10-06T08:34:00.681Z,47.19
2018-10-06T08:36:30.297Z,47.36
2018-10-06T08:38:59.508Z,47.82
2018-10-06T08:41:29.106Z,50.45
2018-10-06T08:43:59.163Z,49.97
2018-10-06T08:46:28.471Z,50.38
2018-10-06T08:48:57.672Z,51.02
2018-10-06T08:51:26.927Z,51.00
2018-10-06T08:53:56.162Z,52.12
2018-10-06T08:56:25.552Z,52.88
2018-10-06T08:58:54.844Z,53.29
2018-10-06T09:01:24.711Z,52.70
2018-10-06T09:03:54.182Z,53.07
2018-10-06T09:06:23.383Z,53.39
2018-10-06T09:08:52.586Z,51.98
2018-10-06T09:11:21.794Z,53.38
2018-10-06T09:13:51.065Z,52.97
2018-10-06T09:16:20.407Z,52.07
2018-10-06T09:18:49.583Z,51.40
2018-10-06T09:21:18.886Z,51.63
2018-10-06T09:23:48.112Z,51.62
2018-10-06T09:26:17.412Z,51.30
2018-10-06T09:28:46.641Z,51.74
2018-10-06T09:31:15.820Z,51.41
2018-10-06T09:33:45.217Z,51.33
2018-10-06T09:36:14.571Z,51.87
2018-10-06T09:38:43.817Z,52.13
2018-10-06T09:41:13.102Z,51.41
2018-10-06T09:43:42.649Z,52.04
2018-10-06T09:46:12.300Z,51.82
2018-10-06T09:48:41.645Z,51.42
2018-10-06T09:51:11.000Z,50.01
2018-10-06T09:53:40.271Z,50.44
2018-10-06T09:56:10.004Z,50.67
2018-10-06T09:58:40.290Z,50.82
2018-10-06T10:01:19.350Z,50.79
2018-10-06T10:03:54.865Z,51.18
2018-10-06T10:06:24.700Z,50.77
2018-10-06T10:08:54.825Z,50.78
2018-10-06T10:11:25.309Z,50.93
2018-10-06T10:13:55.526Z,50.66
2018-10-06T10:16:26.073Z,51.15
2018-10-06T10:18:56.623Z,50.09
2018-10-06T10:21:28.083Z,50.13
2018-10-06T10:23:58.910Z,49.99
2018-10-06T10:26:29.037Z,49.47
2018-10-06T10:29:02.619Z,49.01
2018-10-06T10:31:33.165Z,48.77
2018-10-06T10:34:03.961Z,48.78
2018-10-06T10:36:34.718Z,48.81
2018-10-06T10:39:06.147Z,47.21
2018-10-06T10:41:36.600Z,49.16
2018-10-06T10:44:07.902Z,49.61
2018-10-06T10:46:38.394Z,48.14
2018-10-06T10:49:09.626Z,48.52
2018-10-06T10:51:39.914Z,47.95
2018-10-06T10:54:09.638Z,47.83
2018-10-06T10:56:38.822Z,47.36
2018-10-06T10:59:08.527Z,47.88
2018-10-06T11:01:37.766Z,46.94
2018-10-06T11:04:07.535Z,47.04
2018-10-06T11:06:36.772Z,46.70
2018-10-06T11:09:07.594Z,47.39
2018-10-06T11:11:37.048Z,46.95
2018-10-06T11:14:06.563Z,47.20
2018-10-06T11:16:35.725Z,47.58
2018-10-06T11:19:06.447Z,47.89
2018-10-06T11:21:37.204Z,47.92
2018-10-06T11:24:06.559Z,48.40
2018-10-06T11:26:35.842Z,48.91
2018-10-06T11:29:05.019Z,48.69
2018-10-06T11:31:34.277Z,48.10
2018-10-06T11:34:03.465Z,48.28
2018-10-06T11:36:32.659Z,47.78
2018-10-06T11:39:01.872Z,47.02
2018-10-06T11:41:31.096Z,47.40
2018-10-06T11:44:00.298Z,46.04
2018-10-06T11:46:30.284Z,47.01
2018-10-06T11:48:59.561Z,46.66
2018-10-06T11:51:28.767Z,45.37
2018-10-06T11:53:57.940Z,45.80
2018-10-06T11:56:27.347Z,45.89
2018-10-06T11:58:56.527Z,45.69
2018-10-06T12:01:25.737Z,47.09
2018-10-06T12:03:54.908Z,46.36
2018-10-06T12:06:24.226Z,46.85
2018-10-06T12:08:53.404Z,46.83
2018-10-06T12:11:22.631Z,47.70
2018-10-06T12:13:51.916Z,47.36
2018-10-06T12:16:21.138Z,47.66
2018-10-06T12:18:50.315Z,47.96
2018-10-06T12:21:19.552Z,47.42
2018-10-06T12:23:48.716Z,47.81
2018-10-06T12:26:17.976Z,46.91
2018-10-06T12:28:47.148Z,47.75
2018-10-06T12:31:16.384Z,47.55
2018-10-06T12:33:45.706Z,46.56
2018-10-06T12:36:14.892Z,47.90
2018-10-06T12:38:44.046Z,47.53
2018-10-06T12:41:13.246Z,48.45
2018-10-06T12:43:42.611Z,47.60
2018-10-06T12:46:11.841Z,47.40
2018-10-06T12:48:41.059Z,46.52
2018-10-06T12:51:10.648Z,46.39
2018-10-06T12:53:39.871Z,44.44
2018-10-06T12:56:09.618Z,44.27
2018-10-06T12:58:38.844Z,44.26
2018-10-06T13:01:08.561Z,43.16
2018-10-06T13:03:37.811Z,42.69
2018-10-06T13:06:07.293Z,42.00
2018-10-06T13:08:36.544Z,42.01
2018-10-06T13:11:05.781Z,42.86
2018-10-06T13:13:34.987Z,42.25
2018-10-06T13:16:04.206Z,42.07
2018-10-06T13:18:33.526Z,41.30
2018-10-06T13:21:02.723Z,41.33
2018-10-06T13:23:31.945Z,41.32
2018-10-06T13:26:01.150Z,42.13
2018-10-06T13:28:30.361Z,41.16
2018-10-06T13:30:59.544Z,42.43
2018-10-06T13:33:28.772Z,42.88
2018-10-06T13:35:58.236Z,43.08
2018-10-06T13:38:27.600Z,43.11
2018-10-06T13:40:56.823Z,43.51
2018-10-06T13:43:26.304Z,43.66
2018-10-06T13:45:55.520Z,42.96
2018-10-06T13:48:24.784Z,42.28
2018-10-06T13:50:53.972Z,43.09
2018-10-06T13:53:23.248Z,44.68
2018-10-06T13:55:52.536Z,43.97
2018-10-06T13:58:21.761Z,43.04
2018-10-06T14:00:51.149Z,43.44
2018-10-06T14:03:20.374Z,43.79
2018-10-06T14:05:49.616Z,43.84
2018-10-06T14:08:18.832Z,44.76
2018-10-06T14:10:48.003Z,44.97
2018-10-06T14:13:17.197Z,45.50
2018-10-06T14:15:46.415Z,45.18
2018-10-06T14:18:15.652Z,44.44
2018-10-06T14:20:44.850Z,45.27
2018-10-06T14:23:14.068Z,45.19
2018-10-06T14:25:43.300Z,45.54
2018-10-06T14:28:13.391Z,44.85
2018-10-06T14:30:42.633Z,44.55
2018-10-06T14:33:11.817Z,44.76
2018-10-06T14:35:41.015Z,45.34
2018-10-06T14:38:10.657Z,44.68
2018-10-06T14:40:39.906Z,45.13
2018-10-06T14:43:09.531Z,46.63
2018-10-06T14:45:38.771Z,46.26
2018-10-06T14:48:08.255Z,47.55
2018-10-06T14:50:37.448Z,46.95
2018-10-06T14:53:06.899Z,46.92
2018-10-06T14:55:36.060Z,48.06
2018-10-06T14:58:05.420Z,47.36
2018-10-06T15:00:34.648Z,47.06
2018-10-06T15:03:03.847Z,48.00
2018-10-06T15:05:33.052Z,47.82
2018-10-06T15:08:02.263Z,47.83
2018-10-06T15:10:31.472Z,47.76
2018-10-06T15:13:00.651Z,47.72
2018-10-06T15:15:29.865Z,47.90
2018-10-06T15:17:59.056Z,48.04
2018-10-06T15:20:28.282Z,47.88
2018-10-06T15:22:57.487Z,47.63
2018-10-06T15:25:26.676Z,47.62
2018-10-06T15:27:55.911Z,47.70
2018-10-06T15:30:25.195Z,48.29
2018-10-06T15:32:54.424Z,47.81
2018-10-06T15:35:23.647Z,48.87
2018-10-06T15:37:52.891Z,49.16
2018-10-06T15:40:22.101Z,48.50
2018-10-06T15:42:51.339Z,49.75
2018-10-06T15:45:20.548Z,49.56
2018-10-06T15:47:49.861Z,50.08
2018-10-06T15:50:19.019Z,50.08
2018-10-06T15:52:48.242Z,50.06
2018-10-06T15:55:17.495Z,49.77
2018-10-06T15:57:46.721Z,49.42
2018-10-06T16:00:15.953Z,49.62
2018-10-06T16:02:45.173Z,49.55
2018-10-06T16:05:14.380Z,49.28
2018-10-06T16:07:43.608Z,49.83
2018-10-06T16:10:12.863Z,50.91
2018-10-06T16:12:42.060Z,50.75
2018-10-06T16:15:11.553Z,51.16
2018-10-06T16:17:40.763Z,51.20
2018-10-06T16:20:10.810Z,50.81
2018-10-06T16:22:40.035Z,51.64
2018-10-06T16:25:10.113Z,52.20
2018-10-06T16:27:39.366Z,52.15
2018-10-06T16:30:10.003Z,52.42
2018-10-06T16:32:39.227Z,52.79
2018-10-06T16:35:08.598Z,53.06
2018-10-06T16:37:37.799Z,52.56
2018-10-06T16:40:07.906Z,53.18
2018-10-06T16:42:37.090Z,53.29
2018-10-06T16:45:06.356Z,52.44
2018-10-06T16:47:35.567Z,52.56
2018-10-06T16:50:04.832Z,53.42
2018-10-06T16:52:34.023Z,52.81
2018-10-06T16:55:03.220Z,52.91
2018-10-06T16:57:32.398Z,54.00
2018-10-06T17:00:01.763Z,53.68
2018-10-06T17:02:30.932Z,53.66
2018-10-06T17:05:00.113Z,53.86
2018-10-06T17:07:29.297Z,53.33
2018-10-06T17:09:58.486Z,53.83
2018-10-06T17:12:27.695Z,53.55
2018-10-06T17:14:56.909Z,53.79
2018-10-06T17:17:26.067Z,54.08
2018-10-06T17:19:55.266Z,53.76
2018-10-06T17:22:24.638Z,54.77
2018-10-06T17:24:53.814Z,54.98
2018-10-06T17:27:23.023Z,54.96
2018-10-06T17:29:52.144Z,54.96
2018-10-06T17:32:21.316Z,54.50
2018-10-06T17:34:50.499Z,55.33
2018-10-06T17:37:19.697Z,54.95
2018-10-06T17:39:48.897Z,55.25
2018-10-06T17:42:18.131Z,54.58
2018-10-06T17:44:47.383Z,55.35
2018-10-06T17:47:16.604Z,54.91
2018-10-06T17:49:45.872Z,54.99
2018-10-06T17:52:15.869Z,54.65
2018-10-06T17:54:45.037Z,55.28
2018-10-06T17:57:15.077Z,55.07
2018-10-06T17:59:44.220Z,55.47
2018-10-06T18:02:13.541Z,55.72
2018-10-06T18:04:42.758Z,55.68
2018-10-06T18:07:12.444Z,56.21
2018-10-06T18:09:41.583Z,55.84
2018-10-06T18:12:10.820Z,55.31
2018-10-06T18:14:39.992Z,55.75
2018-10-06T18:17:09.175Z,56.17
2018-10-06T18:19:38.605Z,55.49
2018-10-06T18:22:07.812Z,55.79
2018-10-06T18:24:36.993Z,56.36
2018-10-06T18:27:06.246Z,56.39
2018-10-06T18:29:35.458Z,56.38
2018-10-06T18:32:04.865Z,57.04
2018-10-06T18:34:34.065Z,56.31
2018-10-06T18:37:03.337Z,56.17
2018-10-06T18:39:32.451Z,56.41
2018-10-06T18:42:01.688Z,56.11
2018-10-06T18:44:30.878Z,56.87
2018-10-06T18:47:00.088Z,57.10
2018-10-06T18:49:29.230Z,56.57
2018-10-06T18:51:58.414Z,57.31
2018-10-06T18:54:27.566Z,56.87
2018-10-06T18:56:56.744Z,56.95
2018-10-06T18:59:25.895Z,57.25
2018-10-06T19:01:55.115Z,57.42
2018-10-06T19:04:24.762Z,57.51
2018-10-06T19:06:53.802Z,57.07
2018-10-06T19:09:23.091Z,57.55
2018-10-06T19:11:52.297Z,57.12
2018-10-06T19:14:21.695Z,56.96
2018-10-06T19:16:50.880Z,57.23
2018-10-06T19:19:20.041Z,57.03
2018-10-06T19:21:49.308Z,57.98
2018-10-06T19:24:18.441Z,57.96
2018-10-06T19:26:47.728Z,57.46
2018-10-06T19:29:16.933Z,57.38
2018-10-06T19:31:46.142Z,57.81
2018-10-06T19:34:15.676Z,58.38
2018-10-06T19:36:44.900Z,57.69
2018-10-06T19:39:14.785Z,57.95
2018-10-06T19:41:44.032Z,58.58
2018-10-06T19:44:13.201Z,58.61
2018-10-06T19:46:42.444Z,58.94
2018-10-06T19:49:12.260Z,58.76
2018-10-06T19:51:41.605Z,58.92
2018-10-06T19:54:10.668Z,58.61
2018-10-06T19:56:39.895Z,58.59
2018-10-06T19:59:09.048Z,58.59
2018-10-06T20:01:38.795Z,58.00
2018-10-06T20:04:08.089Z,58.24
2018-10-06T20:06:37.307Z,59.00
2018-10-06T20:09:08.419Z,59.18
2018-10-06T20:11:38.140Z,59.01
2018-10-06T20:14:07.639Z,59.04
2018-10-06T20:16:36.900Z,60.07
2018-10-06T20:19:06.153Z,59.45
2018-10-06T20:21:35.341Z,59.22
2018-10-06T20:24:04.522Z,60.06
2018-10-06T20:26:33.735Z,59.88
2018-10-06T20:29:02.914Z,59.93
2018-10-06T20:31:32.132Z,59.93
2018-10-06T20:34:01.316Z,60.49
2018-10-06T20:36:30.642Z,60.94
2018-10-06T20:38:59.843Z,60.38
2018-10-06T20:41:29.088Z,60.70
2018-10-06T20:43:58.256Z,61.79
2018-10-06T20:46:27.561Z,61.19
2018-10-06T20:48:56.739Z,60.72
2018-10-06T20:51:25.968Z,60.69
2018-10-06T20:53:55.176Z,61.77
2018-10-06T20:56:24.427Z,62.04
2018-10-06T20:58:53.665Z,62.65
2018-10-06T21:01:22.911Z,63.28
2018-10-06T21:03:52.123Z,63.19
2018-10-06T21:06:21.339Z,63.62
2018-10-06T21:08:50.540Z,63.38
2018-10-06T21:11:19.814Z,63.72
2018-10-06T21:13:49.046Z,63.70
2018-10-06T21:16:18.363Z,64.47
2018-10-06T21:18:47.569Z,64.02
2018-10-06T21:21:16.764Z,64.67
2018-10-06T21:23:45.969Z,64.25
2018-10-06T21:26:15.739Z,64.30
2018-10-06T21:28:45.034Z,64.05
2018-10-06T21:31:14.737Z,64.40
2018-10-06T21:33:43.963Z,64.57
2018-10-06T21:36:13.555Z,64.87
2018-10-06T21:38:42.850Z,64.12
2018-10-06T21:41:12.297Z,64.52
2018-10-06T21:43:41.516Z,64.80
2018-10-06T21:46:10.730Z,65.42
2018-10-06T21:48:39.927Z,65.56
2018-10-06T21:51:09.168Z,65.95
2018-10-06T21:53:38.389Z,65.19
2018-10-06T21:56:07.585Z,66.02
2018-10-06T21:58:36.787Z,65.05
2018-10-06T22:01:12.244Z,64.82
2018-10-06T22:03:41.874Z,65.43
2018-10-06T22:06:11.199Z,64.92
2018-10-06T22:08:40.873Z,65.31
2018-10-06T22:11:10.084Z,65.48
2018-10-06T22:13:39.269Z,64.99
2018-10-06T22:16:09.182Z,65.35
2018-10-06T22:18:38.571Z,65.34
2018-10-06T22:21:07.766Z,66.25
2018-10-06T22:23:36.990Z,66.05
2018-10-06T22:26:06.243Z,66.19
2018-10-06T22:28:35.408Z,66.84
2018-10-06T22:31:04.715Z,66.14
2018-10-06T22:33:33.992Z,66.55
2018-10-06T22:36:03.239Z,67.01
2018-10-06T22:38:32.412Z,67.17
2018-10-06T22:41:01.641Z,66.48
2018-10-06T22:43:30.942Z,66.08
2018-10-06T22:46:00.207Z,66.23
2018-10-06T22:48:29.512Z,66.35
2018-10-06T22:50:58.731Z,66.80
2018-10-06T22:53:27.939Z,66.49
2018-10-06T22:55:57.194Z,66.88
2018-10-06T22:58:26.403Z,66.93
2018-10-06T23:00:55.666Z,67.68
2018-10-06T23:03:24.892Z,67.38
2018-10-06T23:05:54.132Z,67.83
2018-10-06T23:08:26.141Z,68.38
2018-10-06T23:10:55.423Z,67.69
2018-10-06T23:13:24.646Z,67.55
2018-10-06T23:15:53.867Z,66.90
2018-10-06T23:18:23.095Z,68.24
2018-10-06T23:20:52.345Z,68.66
2018-10-06T23:23:21.539Z,68.54
2018-10-06T23:25:50.744Z,68.77
2018-10-06T23:28:19.934Z,68.52
2018-10-06T23:30:49.170Z,68.42
2018-10-06T23:33:18.360Z,69.21
2018-10-06T23:35:48.146Z,69.50
2018-10-06T23:38:20.486Z,68.60
2018-10-06T23:40:49.839Z,69.07
2018-10-06T23:43:19.029Z,70.03
2018-10-06T23:45:48.241Z,69.41
2018-10-06T23:48:18.797Z,69.93
2018-10-06T23:50:48.060Z,69.69
2018-10-06T23:53:17.411Z,69.42
2018-10-06T23:55:47.703Z,70.20
